createdAt,value
2022-08-19T00:01:37.976Z,26.15
2022-08-19T00:04:03.109Z,26.30
2022-08-19T00:06:26.407Z,26.33
2022-08-19T00:08:49.714Z,26.28
2022-08-19T00:11:18.535Z,26.25
2022-08-19T00:13:51.011Z,26.16
2022-08-19T00:16:14.330Z,26.22
2022-08-19T00:18:38.953Z,26.27
2022-08-19T00:21:02.257Z,26.29
2022-08-19T00:23:25.538Z,26.12
2022-08-19T00:25:48.957Z,26.23
2022-08-19T00:28:12.273Z,26.13
2022-08-19T00:30:35.594Z,26.05
2022-08-19T00:32:58.869Z,26.06
2022-08-19T00:35:23.618Z,26.08
2022-08-19T00:37:46.882Z,26.04
2022-08-19T00:40:10.662Z,26.05
2022-08-19T00:42:34.121Z,26.04
2022-08-19T00:44:57.328Z,25.90
2022-08-19T00:47:20.909Z,25.89
2022-08-19T00:49:46.674Z,25.92
2022-08-19T00:52:13.440Z,25.90
2022-08-19T00:54:37.638Z,25.92
2022-08-19T00:57:01.369Z,25.88
2022-08-19T01:00:02.014Z,25.95
2022-08-19T01:02:07.889Z,25.90
2022-08-19T01:04:31.135Z,25.94
2022-08-19T01:06:54.509Z,26.10
2022-08-19T01:09:19.130Z,26.09
2022-08-19T01:11:43.365Z,26.23
2022-08-19T01:14:06.650Z,26.22
2022-08-19T01:16:30.039Z,26.28
2022-08-19T01:18:53.373Z,26.13
2022-08-19T01:21:20.016Z,26.17
2022-08-19T01:23:44.613Z,26.17
2022-08-19T01:26:07.987Z,26.23
2022-08-19T01:28:33.858Z,26.21
2022-08-19T01:31:07.064Z,26.10
2022-08-19T01:33:32.033Z,26.13
2022-08-19T01:35:55.311Z,26.12
2022-08-19T01:38:22.442Z,26.09
2022-08-19T01:40:47.351Z,26.02
2022-08-19T01:43:10.613Z,25.94
2022-08-19T01:45:34.833Z,25.76
2022-08-19T01:48:01.659Z,25.82
2022-08-19T01:50:25.869Z,25.86
2022-08-19T01:52:49.300Z,25.83
2022-08-19T01:55:25.941Z,25.69
2022-08-19T01:57:51.382Z,25.59
2022-08-19T02:00:16.425Z,25.70
2022-08-19T02:02:40.383Z,25.72
2022-08-19T02:05:08.134Z,25.70
2022-08-19T02:07:34.630Z,25.75
2022-08-19T02:10:03.090Z,25.84
2022-08-19T02:12:32.158Z,25.77
2022-08-19T02:14:57.500Z,25.98
2022-08-19T02:17:21.745Z,26.06
2022-08-19T02:19:44.987Z,26.16
2022-08-19T02:22:08.361Z,26.32
2022-08-19T02:24:31.649Z,26.41
2022-08-19T02:26:54.934Z,26.27
2022-08-19T02:29:18.228Z,26.45
2022-08-19T02:31:42.882Z,26.56
2022-08-19T02:34:06.183Z,26.61
2022-08-19T02:36:29.474Z,26.50
2022-08-19T02:38:54.262Z,26.61
2022-08-19T02:41:19.788Z,26.62
2022-08-19T02:43:44.432Z,26.56
2022-08-19T02:46:28.218Z,26.45
2022-08-19T02:48:54.076Z,26.53
2022-08-19T02:51:20.729Z,26.32
2022-08-19T02:53:44.439Z,26.36
2022-08-19T02:56:08.742Z,26.29
2022-08-19T02:58:31.837Z,26.45
2022-08-19T03:00:56.212Z,26.49
2022-08-19T03:03:19.744Z,26.54
2022-08-19T03:05:47.017Z,26.48
2022-08-19T03:08:19.267Z,26.42
2022-08-19T03:10:46.362Z,26.21
2022-08-19T03:13:09.879Z,26.44
2022-08-19T03:15:33.172Z,26.29
2022-08-19T03:17:56.466Z,26.13
2022-08-19T03:20:20.850Z,26.25
2022-08-19T03:22:45.665Z,26.32
2022-08-19T03:25:09.614Z,26.12
2022-08-19T03:27:33.018Z,26.13
2022-08-19T03:29:58.043Z,26.16
2022-08-19T03:32:32.769Z,26.31
2022-08-19T03:34:56.649Z,25.96
2022-08-19T03:37:19.864Z,26.04
2022-08-19T03:39:44.543Z,25.89
2022-08-19T03:42:38.764Z,25.76
2022-08-19T03:44:51.611Z,25.69
2022-08-19T03:47:17.666Z,25.88
2022-08-19T03:49:40.981Z,25.82
2022-08-19T03:52:08.247Z,25.85
2022-08-19T03:54:31.609Z,25.69
2022-08-19T03:56:56.798Z,25.66
2022-08-19T03:59:21.343Z,25.70
2022-08-19T04:01:44.834Z,25.78
2022-08-19T04:04:08.153Z,25.90
2022-08-19T04:06:33.405Z,25.79
2022-08-19T04:08:56.928Z,25.80
2022-08-19T04:11:22.509Z,26.03
2022-08-19T04:14:07.134Z,25.96
2022-08-19T04:16:31.702Z,26.25
2022-08-19T04:18:58.633Z,26.49
2022-08-19T04:21:23.406Z,26.38
2022-08-19T04:23:46.732Z,26.25
2022-08-19T04:26:14.222Z,26.20
2022-08-19T04:28:37.803Z,26.22
2022-08-19T04:31:02.522Z,26.46
2022-08-19T04:33:28.718Z,26.36
2022-08-19T04:35:53.046Z,26.54
2022-08-19T04:38:16.491Z,26.53
2022-08-19T04:40:59.616Z,26.51
2022-08-19T04:43:22.937Z,26.54
2022-08-19T04:45:48.428Z,26.20
2022-08-19T04:48:26.156Z,26.25
2022-08-19T04:50:51.861Z,26.39
2022-08-19T04:53:15.142Z,26.44
2022-08-19T04:55:41.679Z,26.49
2022-08-19T04:58:04.977Z,26.48
2022-08-19T05:00:28.289Z,26.47
2022-08-19T05:02:51.678Z,26.32
2022-08-19T05:05:16.354Z,26.45
2022-08-19T05:07:41.128Z,26.32
2022-08-19T05:10:05.160Z,26.39
2022-08-19T05:12:29.880Z,26.33
2022-08-19T05:14:53.310Z,26.38
2022-08-19T05:17:37.439Z,26.37
2022-08-19T05:20:19.607Z,26.35
2022-08-19T05:22:44.897Z,26.38
2022-08-19T05:25:13.086Z,26.46
2022-08-19T05:27:36.955Z,26.49
2022-08-19T05:30:00.230Z,26.56
2022-08-19T05:32:24.440Z,26.69
2022-08-19T05:34:47.813Z,26.72
2022-08-19T05:37:11.538Z,26.77
2022-08-19T05:39:37.631Z,26.75
2022-08-19T05:42:02.677Z,26.62
2022-08-19T05:44:26.532Z,26.62
2022-08-19T05:46:49.746Z,26.68
2022-08-19T05:49:13.054Z,26.70
2022-08-19T05:51:36.710Z,26.75
2022-08-19T05:54:00.059Z,26.68
2022-08-19T05:56:24.760Z,26.68
2022-08-19T05:58:48.458Z,26.76
2022-08-19T06:01:12.763Z,26.80
2022-08-19T06:03:37.344Z,26.79
2022-08-19T06:06:01.397Z,26.85
2022-08-19T06:08:33.837Z,26.87
2022-08-19T06:10:57.939Z,26.94
2022-08-19T06:13:23.706Z,26.88
2022-08-19T06:15:47.452Z,26.91
2022-08-19T06:18:10.734Z,26.95
2022-08-19T06:20:54.617Z,27.03
2022-08-19T06:23:17.668Z,27.04
2022-08-19T06:25:42.331Z,27.04
2022-08-19T06:28:14.971Z,27.04
2022-08-19T06:30:40.254Z,27.06
2022-08-19T06:33:03.621Z,27.08
2022-08-19T06:35:27.976Z,27.10
2022-08-19T06:37:51.330Z,27.13
2022-08-19T06:40:14.651Z,27.09
2022-08-19T06:42:39.396Z,27.10
2022-08-19T06:45:09.643Z,27.18
2022-08-19T06:47:34.898Z,27.19
2022-08-19T06:50:03.202Z,27.21
2022-08-19T06:52:27.462Z,27.21
2022-08-19T06:54:56.456Z,27.21
2022-08-19T06:57:20.194Z,27.24
2022-08-19T06:59:43.468Z,27.26
2022-08-19T07:02:07.614Z,27.24
2022-08-19T07:04:33.462Z,27.28
2022-08-19T07:06:59.534Z,27.29
2022-08-19T07:09:44.283Z,27.30
2022-08-19T07:12:16.290Z,27.31
2022-08-19T07:14:39.943Z,27.35
2022-08-19T07:17:03.279Z,27.41
2022-08-19T07:19:28.303Z,27.40
2022-08-19T07:21:53.849Z,27.41
2022-08-19T07:24:17.767Z,27.46
2022-08-19T07:26:42.381Z,27.46
2022-08-19T07:29:05.770Z,27.44
2022-08-19T07:31:29.398Z,27.48
2022-08-19T07:33:56.330Z,27.46
2022-08-19T07:36:21.444Z,27.44
2022-08-19T07:38:49.169Z,27.48
2022-08-19T07:41:12.945Z,27.47
2022-08-19T07:43:36.179Z,27.52
2022-08-19T07:45:59.683Z,27.55
2022-08-19T07:48:25.945Z,27.59
2022-08-19T07:50:49.455Z,27.58
2022-08-19T07:53:12.974Z,27.63
2022-08-19T07:55:41.242Z,27.63
2022-08-19T07:58:07.025Z,27.66
2022-08-19T08:00:30.348Z,27.70
2022-08-19T08:02:55.716Z,27.71
2022-08-19T08:05:38.784Z,27.67
2022-08-19T08:08:22.526Z,27.73
2022-08-19T08:10:52.581Z,27.73
2022-08-19T08:13:17.905Z,27.73
2022-08-19T08:15:42.903Z,27.78
2022-08-19T08:18:07.127Z,27.79
2022-08-19T08:20:31.081Z,27.82
2022-08-19T08:23:11.417Z,27.85
2022-08-19T08:25:35.343Z,27.89
2022-08-19T08:28:01.335Z,27.88
2022-08-19T08:30:25.881Z,27.91
2022-08-19T08:32:54.458Z,27.92
2022-08-19T08:35:19.238Z,27.90
2022-08-19T08:37:42.693Z,27.98
2022-08-19T08:40:08.149Z,27.95
2022-08-19T08:42:37.795Z,28.02
2022-08-19T08:45:03.397Z,27.93
2022-08-19T08:47:28.714Z,27.97
2022-08-19T08:49:54.157Z,27.90
2022-08-19T08:52:19.503Z,28.06
2022-08-19T08:54:54.767Z,28.07
2022-08-19T08:57:28.948Z,28.12
2022-08-19T08:59:58.216Z,28.00
2022-08-19T09:02:23.078Z,28.15
2022-08-19T09:04:46.301Z,28.15
2022-08-19T09:07:34.699Z,28.22
2022-08-19T09:10:05.426Z,28.29
2022-08-19T09:12:35.340Z,28.28
2022-08-19T09:14:59.894Z,28.23
2022-08-19T09:17:27.850Z,28.27
2022-08-19T09:19:53.589Z,28.29
2022-08-19T09:22:23.582Z,28.29
2022-08-19T09:24:50.200Z,28.41
2022-08-19T09:27:18.403Z,28.41
2022-08-19T09:29:42.041Z,28.36
2022-08-19T09:32:06.290Z,28.43
2022-08-19T09:34:51.337Z,28.37
2022-08-19T09:37:15.131Z,28.26
2022-08-19T09:39:39.411Z,28.14
2022-08-19T09:42:04.601Z,28.43
2022-08-19T09:44:27.911Z,28.46
2022-08-19T09:46:51.963Z,28.48
2022-08-19T09:49:15.488Z,28.49
2022-08-19T09:51:40.211Z,28.52
2022-08-19T09:54:05.192Z,28.35
2022-08-19T09:56:28.654Z,28.30
2022-08-19T09:58:51.909Z,28.43
2022-08-19T10:01:18.537Z,28.48
2022-08-19T10:03:41.757Z,28.52
2022-08-19T10:06:15.098Z,28.58
2022-08-19T10:08:50.337Z,28.56
2022-08-19T10:11:27.219Z,28.60
2022-08-19T10:13:51.037Z,28.37
2022-08-19T10:16:16.876Z,28.50
2022-08-19T10:18:44.237Z,28.61
2022-08-19T10:21:14.675Z,28.56
2022-08-19T10:23:38.847Z,28.60
2022-08-19T10:26:04.339Z,28.61
2022-08-19T10:28:27.587Z,28.73
2022-08-19T10:30:54.306Z,28.72
2022-08-19T10:33:39.074Z,28.75
2022-08-19T10:36:02.152Z,28.69
2022-08-19T10:38:31.477Z,28.54
2022-08-19T10:40:55.195Z,28.57
2022-08-19T10:43:20.279Z,28.75
2022-08-19T10:45:52.457Z,28.69
2022-08-19T10:48:16.179Z,28.49
2022-08-19T10:51:00.366Z,28.59
2022-08-19T10:53:26.454Z,28.85
2022-08-19T10:56:07.152Z,28.66
2022-08-19T10:58:31.915Z,28.71
2022-08-19T11:00:55.636Z,28.69
2022-08-19T11:03:19.717Z,28.72
2022-08-19T11:05:43.121Z,28.65
2022-08-19T11:08:22.101Z,28.60
2022-08-19T11:10:50.262Z,28.65
2022-08-19T11:13:14.032Z,28.71
2022-08-19T11:15:39.407Z,28.76
2022-08-19T11:18:02.646Z,28.73
2022-08-19T11:20:26.784Z,28.68
2022-08-19T11:22:50.040Z,28.66
2022-08-19T11:25:13.469Z,28.62
2022-08-19T11:27:40.363Z,28.58
2022-08-19T11:30:04.678Z,28.58
2022-08-19T11:32:33.326Z,28.58
2022-08-19T11:34:56.590Z,28.51
2022-08-19T11:37:19.870Z,28.47
2022-08-19T11:39:43.198Z,28.41
2022-08-19T11:42:28.112Z,28.42
2022-08-19T11:44:51.222Z,28.44
2022-08-19T11:47:14.466Z,28.43
2022-08-19T11:49:39.413Z,28.40
2022-08-19T11:52:02.642Z,28.34
2022-08-19T11:54:26.144Z,28.35
2022-08-19T11:56:50.111Z,28.32
2022-08-19T11:59:14.969Z,28.29
2022-08-19T12:01:38.532Z,28.25
2022-08-19T12:04:01.920Z,28.23
2022-08-19T12:06:29.719Z,28.21
2022-08-19T12:08:53.035Z,28.17
2022-08-19T12:11:16.878Z,28.18
2022-08-19T12:13:40.469Z,28.24
2022-08-19T12:16:08.099Z,28.26
2022-08-19T12:18:31.384Z,28.24
2022-08-19T12:20:55.596Z,28.21
2022-08-19T12:23:20.375Z,28.17
2022-08-19T12:25:49.402Z,28.14
2022-08-19T12:28:12.671Z,28.15
2022-08-19T12:30:35.959Z,28.15
2022-08-19T12:32:59.291Z,28.13
2022-08-19T12:35:22.565Z,28.09
2022-08-19T12:37:46.179Z,28.06
2022-08-19T12:40:21.664Z,28.06
2022-08-19T12:42:44.952Z,28.02
2022-08-19T12:45:09.474Z,28.00
2022-08-19T12:47:33.342Z,28.00
2022-08-19T12:49:57.544Z,27.98
2022-08-19T12:52:23.228Z,27.97
2022-08-19T12:54:47.259Z,27.96
2022-08-19T12:57:12.009Z,27.94
2022-08-19T12:59:35.612Z,27.97
2022-08-19T13:01:59.003Z,27.98
2022-08-19T13:04:22.270Z,27.97
2022-08-19T13:06:45.569Z,27.94
2022-08-19T13:09:08.888Z,27.93
2022-08-19T13:11:33.449Z,27.96
2022-08-19T13:13:58.186Z,27.94
2022-08-19T13:16:23.031Z,27.93
2022-08-19T13:18:47.534Z,27.92
2022-08-19T13:21:12.569Z,27.94
2022-08-19T13:23:36.429Z,27.97
2022-08-19T13:25:59.925Z,27.96
2022-08-19T13:28:23.144Z,28.00
2022-08-19T13:31:11.703Z,28.00
2022-08-19T13:33:35.685Z,28.01
2022-08-19T13:36:01.362Z,28.03
2022-08-19T13:38:24.736Z,28.03
2022-08-19T13:40:48.465Z,28.00
2022-08-19T13:43:17.873Z,28.03
2022-08-19T13:45:46.639Z,28.04
2022-08-19T13:48:11.253Z,27.99
2022-08-19T13:50:34.696Z,27.97
2022-08-19T13:52:58.112Z,27.98
2022-08-19T13:55:24.700Z,27.99
2022-08-19T13:57:48.498Z,27.97
2022-08-19T14:00:14.778Z,27.95
2022-08-19T14:02:38.661Z,27.97
2022-08-19T14:05:03.347Z,27.98
2022-08-19T14:07:26.678Z,28.00
2022-08-19T14:09:49.935Z,27.99
2022-08-19T14:12:13.213Z,27.98
2022-08-19T14:14:38.685Z,27.98
2022-08-19T14:17:01.918Z,28.01
2022-08-19T14:19:25.205Z,28.01
2022-08-19T14:21:55.280Z,28.01
2022-08-19T14:24:18.526Z,28.01
2022-08-19T14:26:41.821Z,28.01
2022-08-19T14:29:05.497Z,28.00
2022-08-19T14:31:30.862Z,27.99
2022-08-19T14:33:54.271Z,27.96
2022-08-19T14:36:17.593Z,27.95
2022-08-19T14:38:42.269Z,27.95
2022-08-19T14:41:14.026Z,27.93
2022-08-19T14:43:37.339Z,27.97
2022-08-19T14:46:00.922Z,27.94
2022-08-19T14:48:28.955Z,27.96
2022-08-19T14:50:53.263Z,27.93
2022-08-19T14:53:17.648Z,27.92
2022-08-19T14:55:44.985Z,27.90
2022-08-19T14:58:09.373Z,27.89
2022-08-19T15:00:51.918Z,27.87
2022-08-19T15:03:15.133Z,27.90
2022-08-19T15:05:38.518Z,27.88
2022-08-19T15:08:05.313Z,27.90
2022-08-19T15:10:28.624Z,27.89
2022-08-19T15:12:54.289Z,27.89
2022-08-19T15:15:19.297Z,27.91
2022-08-19T15:17:46.162Z,27.91
2022-08-19T15:20:10.930Z,27.89
2022-08-19T15:22:34.183Z,27.91
2022-08-19T15:24:57.416Z,27.90
2022-08-19T15:27:22.617Z,27.86
2022-08-19T15:29:47.460Z,27.80
2022-08-19T15:32:10.827Z,27.85
2022-08-19T15:34:34.112Z,27.83
2022-08-19T15:36:59.490Z,27.88
2022-08-19T15:39:22.758Z,27.87
2022-08-19T15:41:46.194Z,27.89
2022-08-19T15:44:10.906Z,27.85
2022-08-19T15:46:35.808Z,27.85
2022-08-19T15:49:00.275Z,27.86
2022-08-19T15:51:23.962Z,27.88
2022-08-19T15:53:47.338Z,27.78
2022-08-19T15:56:10.741Z,27.75
2022-08-19T15:58:51.265Z,27.79
2022-08-19T16:01:32.063Z,27.82
2022-08-19T16:04:20.370Z,27.76
2022-08-19T16:06:45.145Z,27.79
2022-08-19T16:09:09.599Z,27.82
2022-08-19T16:11:39.488Z,27.81
2022-08-19T16:14:03.454Z,27.77
2022-08-19T16:16:31.008Z,27.71
2022-08-19T16:18:57.594Z,27.72
2022-08-19T16:21:22.332Z,27.71
2022-08-19T16:23:46.771Z,27.72
2022-08-19T16:26:10.003Z,27.74
2022-08-19T16:28:33.806Z,27.75
2022-08-19T16:30:57.078Z,27.74
2022-08-19T16:33:22.933Z,27.77
2022-08-19T16:35:51.954Z,27.79
2022-08-19T16:38:25.300Z,27.81
2022-08-19T16:40:49.216Z,27.69
2022-08-19T16:43:12.643Z,27.68
2022-08-19T16:45:35.899Z,27.65
2022-08-19T16:47:59.239Z,27.67
2022-08-19T16:50:39.246Z,27.65
2022-08-19T16:53:07.934Z,27.67
2022-08-19T16:55:32.656Z,27.64
2022-08-19T16:57:56.196Z,27.63
2022-08-19T17:00:20.538Z,27.65
2022-08-19T17:02:43.840Z,27.67
2022-08-19T17:05:08.604Z,27.63
2022-08-19T17:07:33.492Z,27.62
2022-08-19T17:09:57.471Z,27.63
2022-08-19T17:12:22.203Z,27.62
2022-08-19T17:14:53.908Z,27.64
2022-08-19T17:17:17.277Z,27.63
2022-08-19T17:19:42.537Z,27.64
2022-08-19T17:22:06.035Z,27.64
2022-08-19T17:24:31.200Z,27.62
2022-08-19T17:26:54.476Z,27.63
2022-08-19T17:29:19.592Z,27.62
2022-08-19T17:31:43.470Z,27.63
2022-08-19T17:34:06.988Z,27.64
2022-08-19T17:36:34.013Z,27.61
2022-08-19T17:38:57.817Z,27.59
2022-08-19T17:41:21.089Z,27.59
2022-08-19T17:43:44.958Z,27.61
2022-08-19T17:46:11.043Z,27.61
2022-08-19T17:48:38.904Z,27.61
2022-08-19T17:51:02.396Z,27.61
2022-08-19T17:53:26.352Z,27.64
2022-08-19T17:55:49.746Z,27.65
2022-08-19T17:58:12.996Z,27.66
2022-08-19T18:00:37.135Z,27.67
2022-08-19T18:03:17.467Z,27.66
2022-08-19T18:05:42.575Z,27.46
2022-08-19T18:08:09.161Z,27.39
2022-08-19T18:10:35.254Z,27.33
2022-08-19T18:12:58.798Z,27.24
2022-08-19T18:15:22.850Z,27.18
2022-08-19T18:17:46.141Z,27.12
2022-08-19T18:20:12.458Z,27.12
2022-08-19T18:22:37.739Z,27.09
2022-08-19T18:25:02.139Z,27.11
2022-08-19T18:27:25.435Z,27.12
2022-08-19T18:29:48.775Z,27.02
2022-08-19T18:32:14.995Z,26.98
2022-08-19T18:34:38.283Z,27.13
2022-08-19T18:37:03.007Z,27.03
2022-08-19T18:39:44.335Z,26.97
2022-08-19T18:42:34.393Z,26.99
2022-08-19T18:45:15.257Z,26.83
2022-08-19T18:47:56.139Z,26.95
2022-08-19T18:50:19.669Z,27.06
2022-08-19T18:52:44.349Z,27.06
2022-08-19T18:55:08.623Z,26.92
2022-08-19T18:57:31.997Z,26.94
2022-08-19T18:59:56.751Z,26.95
2022-08-19T19:02:22.249Z,26.91
2022-08-19T19:04:45.601Z,26.91
2022-08-19T19:07:09.445Z,26.82
2022-08-19T19:09:35.096Z,26.77
2022-08-19T19:11:59.199Z,26.88
2022-08-19T19:14:47.641Z,26.79
2022-08-19T19:17:11.070Z,26.76
2022-08-19T19:19:34.690Z,26.81
2022-08-19T19:21:58.710Z,26.97
2022-08-19T19:24:25.242Z,27.03
2022-08-19T19:26:50.067Z,26.91
2022-08-19T19:29:13.758Z,26.85
2022-08-19T19:31:36.958Z,26.84
2022-08-19T19:34:00.761Z,26.83
2022-08-19T19:36:24.012Z,26.84
2022-08-19T19:38:48.811Z,26.77
2022-08-19T19:41:12.482Z,26.80
2022-08-19T19:43:41.134Z,26.79
2022-08-19T19:46:04.590Z,26.76
2022-08-19T19:48:30.998Z,26.64
2022-08-19T19:50:56.174Z,26.65
2022-08-19T19:53:19.613Z,26.66
2022-08-19T19:55:43.219Z,26.76
2022-08-19T19:58:06.980Z,26.76
2022-08-19T20:00:31.702Z,26.72
2022-08-19T20:02:56.137Z,26.74
2022-08-19T20:05:21.285Z,26.67
2022-08-19T20:08:02.329Z,26.62
2022-08-19T20:10:25.883Z,26.71
2022-08-19T20:12:49.132Z,26.74
2022-08-19T20:15:13.059Z,26.70
2022-08-19T20:17:42.512Z,26.74
2022-08-19T20:20:06.762Z,26.72
2022-08-19T20:22:33.911Z,26.75
2022-08-19T20:24:57.350Z,26.70
2022-08-19T20:27:22.774Z,26.72
2022-08-19T20:29:49.333Z,26.68
2022-08-19T20:32:15.339Z,26.66
2022-08-19T20:34:40.153Z,26.73
2022-08-19T20:37:03.424Z,26.74
2022-08-19T20:39:26.732Z,26.61
2022-08-19T20:41:50.064Z,26.67
2022-08-19T20:44:13.330Z,26.66
2022-08-19T20:46:36.717Z,26.87
2022-08-19T20:49:00.480Z,26.73
2022-08-19T20:51:25.216Z,26.78
2022-08-19T20:53:48.521Z,26.63
2022-08-19T20:56:11.756Z,26.53
2022-08-19T20:58:38.258Z,26.59
2022-08-19T21:01:02.173Z,26.82
2022-08-19T21:03:26.467Z,26.71
2022-08-19T21:05:49.858Z,26.61
2022-08-19T21:08:14.655Z,26.64
2022-08-19T21:10:42.172Z,26.72
2022-08-19T21:13:05.704Z,26.71
2022-08-19T21:15:29.020Z,26.69
2022-08-19T21:17:52.289Z,26.56
2022-08-19T21:20:15.630Z,26.53
2022-08-19T21:22:38.898Z,26.53
2022-08-19T21:25:03.527Z,26.58
2022-08-19T21:27:26.875Z,26.54
2022-08-19T21:29:50.148Z,26.46
2022-08-19T21:32:14.125Z,26.47
2022-08-19T21:34:38.203Z,26.51
2022-08-19T21:37:01.444Z,26.50
2022-08-19T21:39:24.821Z,26.50
2022-08-19T21:41:49.542Z,26.54
2022-08-19T21:44:12.774Z,26.56
2022-08-19T21:46:37.490Z,26.71
2022-08-19T21:49:00.790Z,26.64
2022-08-19T21:51:24.127Z,26.55
2022-08-19T21:53:47.381Z,26.55
2022-08-19T21:56:12.831Z,26.59
2022-08-19T21:58:37.562Z,26.53
2022-08-19T22:01:01.618Z,26.56
2022-08-19T22:03:25.529Z,26.60
2022-08-19T22:05:48.795Z,26.69
2022-08-19T22:08:12.674Z,26.46
2022-08-19T22:10:36.077Z,26.40
2022-08-19T22:12:59.479Z,26.36
2022-08-19T22:15:26.198Z,26.36
2022-08-19T22:17:49.908Z,26.42
2022-08-19T22:20:14.694Z,26.55
2022-08-19T22:22:38.352Z,26.66
2022-08-19T22:25:03.157Z,26.82
2022-08-19T22:27:26.494Z,26.70
2022-08-19T22:29:52.541Z,26.78
2022-08-19T22:32:26.645Z,26.75
2022-08-19T22:34:52.047Z,26.69
2022-08-19T22:37:15.317Z,26.54
2022-08-19T22:39:38.708Z,26.47
2022-08-19T22:42:02.017Z,26.47
2022-08-19T22:44:25.246Z,26.48
2022-08-19T22:46:48.651Z,26.46
2022-08-19T22:49:13.382Z,26.55
2022-08-19T22:51:53.721Z,26.49
2022-08-19T22:54:17.066Z,26.39
2022-08-19T22:56:40.311Z,26.33
2022-08-19T22:59:03.708Z,26.42
2022-08-19T23:01:29.934Z,26.26
2022-08-19T23:03:53.781Z,26.25
2022-08-19T23:06:18.541Z,26.20
2022-08-19T23:08:41.885Z,26.23
2022-08-19T23:11:05.233Z,26.26
2022-08-19T23:13:31.735Z,26.22
2022-08-19T23:15:55.058Z,26.31
2022-08-19T23:18:18.606Z,26.31
2022-08-19T23:20:43.319Z,26.43
2022-08-19T23:23:08.637Z,26.62
2022-08-19T23:25:32.777Z,26.77
2022-08-19T23:28:13.195Z,26.81
2022-08-19T23:30:39.429Z,26.51
2022-08-19T23:33:07.716Z,26.79
2022-08-19T23:35:35.321Z,26.47
2022-08-19T23:37:58.328Z,26.40
2022-08-19T23:40:23.086Z,26.26
2022-08-19T23:42:46.630Z,26.14
2022-08-19T23:45:10.986Z,26.04
2022-08-19T23:47:35.735Z,26.05
2022-08-19T23:49:59.131Z,26.02
2022-08-19T23:52:22.474Z,26.10
2022-08-19T23:54:45.736Z,25.95
2022-08-19T23:57:13.792Z,25.95
2022-08-19T23:59:38.090Z,25.93
